Time;durP1;ratioP1;P1;durP2;ratioP2;P2;SDS_P1;SDS_P2;PMS_P1;PMS_P2;Temp;Humidity;BMP_temperature;BMP_pressure;BME280_temperature;BME280_humidity;BME280_pressure;Samples;Min_cycle;Max_cycle;Signal;HPM_P1;HPM_P2
2023/03/06 00:02:25;;;;;;;10.20;7.90;;;;;;;;;;102677;1333;175706;-32
2023/03/06 00:05:04;;;;;;;10.80;8.00;;;;;;;;;;102788;1333;43285;-32
2023/03/06 00:07:40;;;;;;;10.80;7.90;;;;;;;;;;102960;1330;39643;-32
2023/03/06 00:10:16;;;;;;;10.50;7.60;;;;;;;;;;103071;1329;41408;-32
2023/03/06 00:12:46;;;;;;;11.70;8.70;;;;;;;;;;103116;1331;44259;-32
2023/03/06 00:15:25;;;;;;;11.40;8.10;;;;;;;;;;103054;1338;42964;-32
2023/03/06 00:18:03;;;;;;;11.10;7.90;;;;;;;;;;102836;1337;39562;-33
2023/03/06 00:20:38;;;;;;;11.00;7.70;;;;;;;;;;102780;1333;41343;-33
2023/03/06 00:23:16;;;;;;;10.40;7.70;;;;;;;;;;102755;1334;44948;-33
2023/03/06 00:25:49;;;;;;;11.00;8.20;;;;;;;;;;102783;1333;42950;-32
2023/03/06 00:28:25;;;;;;;10.90;8.10;;;;;;;;;;103023;1331;39723;-32
2023/03/06 00:30:59;;;;;;;12.10;8.40;;;;;;;;;;103081;1331;41146;-32
2023/03/06 00:33:42;;;;;;;10.90;8.40;;;;;;;;;;103073;1331;44398;-32
2023/03/06 00:36:17;;;;;;;10.90;7.90;;;;;;;;;;103093;1331;43029;-32
2023/03/06 00:38:54;;;;;;;10.80;7.90;;;;;;;;;;102780;1329;41991;-32
2023/03/06 00:41:27;;;;;;;10.80;8.10;;;;;;;;;;102807;1332;41292;-32
2023/03/06 00:44:04;;;;;;;11.00;8.40;;;;;;;;;;102774;1334;45791;-32
2023/03/06 00:46:39;;;;;;;11.20;8.40;;;;;;;;;;102769;1333;43024;-33
2023/03/06 00:49:16;;;;;;;10.60;8.10;;;;;;;;;;103020;1331;39697;-33
2023/03/06 00:51:52;;;;;;;10.80;8.50;;;;;;;;;;103033;1331;41255;-32
2023/03/06 00:54:24;;;;;;;10.80;8.20;;;;;;;;;;103021;1331;44361;-32
2023/03/06 00:56:59;;;;;;;12.50;8.70;;;;;;;;;;103044;1329;43218;-32
2023/03/06 00:59:39;;;;;;;11.40;8.60;;;;;;;;;;103052;1329;39540;-32
2023/03/06 01:02:19;;;;;;;11.00;8.20;;;;;;;;;;103037;1331;41276;-32
2023/03/06 01:04:55;;;;;;;12.00;8.80;;;;;;;;;;103058;1331;44273;-32
2023/03/06 01:07:26;;;;;;;11.30;8.40;;;;;;;;;;103088;1330;44305;-32
2023/03/06 01:09:57;;;;;;;11.70;8.30;;;;;;;;;;103109;1331;39749;-32
2023/03/06 01:12:35;;;;;;;11.50;8.80;;;;;;;;;;103058;1331;41326;-32
2023/03/06 01:15:11;;;;;;;10.90;8.20;;;;;;;;;;103055;1331;44291;-32
2023/03/06 01:17:49;;;;;;;11.60;8.40;;;;;;;;;;103075;1330;43116;-32
2023/03/06 01:20:30;;;;;;;11.10;9.00;;;;;;;;;;102799;1334;46224;-32
2023/03/06 01:23:05;;;;;;;11.10;8.60;;;;;;;;;;102814;1334;41365;-32
2023/03/06 01:25:41;;;;;;;11.70;8.30;;;;;;;;;;102797;1334;44268;-32
2023/03/06 01:28:11;;;;;;;11.20;8.20;;;;;;;;;;102788;1332;43020;-32
2023/03/06 01:30:43;;;;;;;11.50;8.60;;;;;;;;;;102992;1331;46067;-32
2023/03/06 01:33:17;;;;;;;10.80;8.60;;;;;;;;;;102995;1331;41286;-32
2023/03/06 01:35:47;;;;;;;11.00;8.00;;;;;;;;;;103075;1331;44266;-32
2023/03/06 01:38:18;;;;;;;11.30;8.20;;;;;;;;;;103012;1331;42911;-32
2023/03/06 01:40:51;;;;;;;11.50;8.50;;;;;;;;;;102863;1334;39478;-32
2023/03/06 01:43:31;;;;;;;11.30;8.60;;;;;;;;;;102756;1334;42599;-32
2023/03/06 01:46:34;;;;;;;11.60;8.30;;;;;;;;;;102791;1333;44309;-32
2023/03/06 01:49:11;;;;;;;12.60;8.50;;;;;;;;;;102869;1331;43030;-32
2023/03/06 01:51:49;;;;;;;10.70;8.10;;;;;;;;;;103121;1331;39628;-32
2023/03/06 01:54:28;;;;;;;11.70;8.50;;;;;;;;;;103106;1329;41360;-32
2023/03/06 01:57:05;;;;;;;11.90;8.80;;;;;;;;;;103074;1331;44416;-32
2023/03/06 01:59:42;;;;;;;11.40;8.20;;;;;;;;;;103074;1331;42910;-32
2023/03/06 02:02:15;;;;;;;11.20;8.20;;;;;;;;;;103096;1331;40909;-32
2023/03/06 02:04:46;;;;;;;10.80;8.00;;;;;;;;;;102936;1329;42608;-32
2023/03/06 02:07:19;;;;;;;10.70;8.10;;;;;;;;;;103086;1331;44322;-32
2023/03/06 02:09:54;;;;;;;11.00;8.30;;;;;;;;;;102428;1331;899774;-32
2023/03/06 02:12:27;;;;;;;12.00;8.80;;;;;;;;;;103097;1331;39813;-32
2023/03/06 02:15:00;;;;;;;11.60;8.20;;;;;;;;;;103056;1331;41371;-32
2023/03/06 02:17:31;;;;;;;12.00;8.60;;;;;;;;;;103088;1329;44161;-32
2023/03/06 02:20:18;;;;;;;10.90;8.00;;;;;;;;;;102937;1331;43278;-32
2023/03/06 02:23:01;;;;;;;11.70;8.20;;;;;;;;;;102823;1334;39473;-32
2023/03/06 02:25:37;;;;;;;11.80;8.20;;;;;;;;;;102819;1332;41414;-32
2023/03/06 02:28:21;;;;;;;12.20;8.30;;;;;;;;;;102846;1333;45563;-32
2023/03/06 02:30:54;;;;;;;11.40;8.60;;;;;;;;;;102977;1331;43178;-32
2023/03/06 02:33:28;;;;;;;11.20;8.60;;;;;;;;;;103150;1329;39733;-32
2023/03/06 02:36:03;;;;;;;10.80;8.30;;;;;;;;;;103112;1329;41169;-32
2023/03/06 02:38:46;;;;;;;12.10;8.70;;;;;;;;;;103077;1330;44383;-32
2023/03/06 02:41:24;;;;;;;11.50;8.30;;;;;;;;;;103055;1330;43270;-32
2023/03/06 02:44:02;;;;;;;11.20;8.10;;;;;;;;;;103109;1330;39517;-32
2023/03/06 02:46:42;;;;;;;12.10;8.50;;;;;;;;;;103090;1330;41394;-32
2023/03/06 02:49:20;;;;;;;11.70;8.30;;;;;;;;;;103065;1331;44322;-32
2023/03/06 02:51:53;;;;;;;11.20;8.00;;;;;;;;;;103049;1330;44247;-32
2023/03/06 02:54:28;;;;;;;11.00;8.10;;;;;;;;;;103097;1330;39670;-32
2023/03/06 02:56:58;;;;;;;11.80;8.70;;;;;;;;;;103008;1331;175660;-32
2023/03/06 02:59:31;;;;;;;11.50;8.30;;;;;;;;;;103128;1331;44810;-32
2023/03/06 03:02:04;;;;;;;11.70;8.20;;;;;;;;;;102806;1333;43022;-32
2023/03/06 03:04:37;;;;;;;11.80;8.90;;;;;;;;;;102803;1334;39611;-32
2023/03/06 03:07:07;;;;;;;11.60;8.90;;;;;;;;;;102817;1334;41409;-32
2023/03/06 03:09:37;;;;;;;11.40;8.50;;;;;;;;;;102783;1334;45621;-32
2023/03/06 03:12:11;;;;;;;11.10;8.70;;;;;;;;;;103011;1331;43973;-32
2023/03/06 03:14:47;;;;;;;10.60;8.20;;;;;;;;;;103118;1331;39767;-32
2023/03/06 03:17:21;;;;;;;11.20;8.40;;;;;;;;;;103059;1331;41213;-32
2023/03/06 03:19:54;;;;;;;11.80;8.60;;;;;;;;;;103066;1329;44378;-32
2023/03/06 03:22:28;;;;;;;11.10;8.10;;;;;;;;;;103054;1331;42865;-32
2023/03/06 03:25:04;;;;;;;11.80;8.50;;;;;;;;;;103097;1331;39566;-32
2023/03/06 03:27:37;;;;;;;11.60;8.10;;;;;;;;;;103135;1330;41258;-32
2023/03/06 03:30:13;;;;;;;11.40;8.30;;;;;;;;;;103082;1329;44274;-32
2023/03/06 03:32:48;;;;;;;11.40;8.10;;;;;;;;;;102813;1331;43151;-32
2023/03/06 03:35:24;;;;;;;11.20;7.70;;;;;;;;;;102698;1334;39429;-33
2023/03/06 03:37:58;;;;;;;11.10;7.90;;;;;;;;;;102799;1333;41509;-33
2023/03/06 03:40:32;;;;;;;10.40;8.20;;;;;;;;;;102769;1334;44571;-33
2023/03/06 03:43:04;;;;;;;10.50;7.70;;;;;;;;;;103080;1330;43292;-33
2023/03/06 03:45:40;;;;;;;11.30;8.40;;;;;;;;;;103124;1331;40179;-32
2023/03/06 03:48:10;;;;;;;10.80;7.80;;;;;;;;;;103110;1330;41306;-32
2023/03/06 03:50:45;;;;;;;10.50;8.20;;;;;;;;;;103137;1331;44239;-32
2023/03/06 03:53:17;;;;;;;10.80;8.00;;;;;;;;;;102782;1333;42922;-32
2023/03/06 03:55:50;;;;;;;10.40;7.80;;;;;;;;;;102792;1334;39345;-32
2023/03/06 03:58:20;;;;;;;11.10;7.90;;;;;;;;;;102812;1333;42575;-32
2023/03/06 04:00:58;;;;;;;10.60;7.70;;;;;;;;;;102806;1334;45064;-32
2023/03/06 04:03:32;;;;;;;10.70;8.20;;;;;;;;;;102769;1331;49820;-32
2023/03/06 04:06:05;;;;;;;10.70;7.60;;;;;;;;;;102909;1331;39372;-32
2023/03/06 04:08:41;;;;;;;11.80;8.10;;;;;;;;;;102900;1331;41251;-32
2023/03/06 04:11:19;;;;;;;11.30;8.20;;;;;;;;;;102910;1331;44354;-32
2023/03/06 04:13:57;;;;;;;9.80;7.80;;;;;;;;;;102803;1334;49782;-32
2023/03/06 04:16:37;;;;;;;10.20;7.70;;;;;;;;;;102775;1334;39701;-32
2023/03/06 04:19:15;;;;;;;10.90;7.80;;;;;;;;;;102825;1333;42606;-32
2023/03/06 04:21:53;;;;;;;10.60;7.50;;;;;;;;;;102786;1331;44421;-32
2023/03/06 04:24:26;;;;;;;10.30;7.60;;;;;;;;;;102967;1331;175880;-32
2023/03/06 04:27:06;;;;;;;11.10;7.60;;;;;;;;;;103078;1331;39623;-32
2023/03/06 04:29:36;;;;;;;10.60;7.50;;;;;;;;;;102972;1331;175571;-32
2023/03/06 04:32:16;;;;;;;11.00;8.10;;;;;;;;;;103054;1331;44362;-32
2023/03/06 04:34:53;;;;;;;11.20;7.60;;;;;;;;;;103059;1330;51270;-32
2023/03/06 04:37:31;;;;;;;10.60;7.20;;;;;;;;;;102936;1331;39753;-32
2023/03/06 04:40:08;;;;;;;11.20;7.70;;;;;;;;;;103095;1331;41157;-32
2023/03/06 04:42:46;;;;;;;10.50;7.30;;;;;;;;;;103084;1330;44332;-32
2023/03/06 04:45:21;;;;;;;11.00;7.40;;;;;;;;;;102793;1334;44364;-32
2023/03/06 04:47:59;;;;;;;10.70;7.50;;;;;;;;;;102806;1334;39744;-32
2023/03/06 04:50:32;;;;;;;10.60;7.30;;;;;;;;;;102590;1340;41162;-32
2023/03/06 04:53:07;;;;;;;10.00;7.40;;;;;;;;;;102697;1331;177802;-32
2023/03/06 04:55:43;;;;;;;10.40;7.60;;;;;;;;;;103086;1329;42937;-32
2023/03/06 04:58:14;;;;;;;10.40;7.20;;;;;;;;;;103088;1331;39555;-32
2023/03/06 05:00:47;;;;;;;10.00;7.20;;;;;;;;;;103098;1330;41750;-32
2023/03/06 05:03:17;;;;;;;11.10;7.60;;;;;;;;;;102980;1331;45576;-32
2023/03/06 05:05:49;;;;;;;10.70;7.70;;;;;;;;;;102769;1332;43616;-32
2023/03/06 05:08:26;;;;;;;10.40;7.40;;;;;;;;;;102775;1334;40694;-32
2023/03/06 05:11:01;;;;;;;10.90;7.50;;;;;;;;;;102750;1334;42855;-32
2023/03/06 05:13:32;;;;;;;10.50;7.30;;;;;;;;;;102832;1329;44367;-32
2023/03/06 05:16:19;;;;;;;11.10;7.30;;;;;;;;;;103052;1329;43179;-32
2023/03/06 05:18:52;;;;;;;10.70;7.30;;;;;;;;;;103044;1331;39705;-32
2023/03/06 05:21:25;;;;;;;9.50;7.20;;;;;;;;;;103088;1331;41299;-32
2023/03/06 05:24:03;;;;;;;10.40;7.10;;;;;;;;;;102957;1334;44429;-32
2023/03/06 05:26:39;;;;;;;10.10;7.20;;;;;;;;;;102781;1332;43768;-32
2023/03/06 05:29:12;;;;;;;10.10;7.30;;;;;;;;;;102768;1333;39689;-32
2023/03/06 05:31:49;;;;;;;10.00;7.00;;;;;;;;;;102766;1334;41467;-32
2023/03/06 05:34:29;;;;;;;9.60;7.40;;;;;;;;;;102796;1330;44114;-32
2023/03/06 05:37:05;;;;;;;10.80;7.20;;;;;;;;;;103018;1330;43087;-32
2023/03/06 05:39:38;;;;;;;10.30;7.10;;;;;;;;;;103086;1330;41151;-32
2023/03/06 05:42:13;;;;;;;9.70;7.00;;;;;;;;;;103077;1329;41144;-32
2023/03/06 05:44:44;;;;;;;10.20;7.30;;;;;;;;;;102927;1331;45507;-32
2023/03/06 05:47:17;;;;;;;9.50;6.90;;;;;;;;;;102804;1334;42921;-32
2023/03/06 05:50:01;;;;;;;10.60;7.20;;;;;;;;;;102743;1333;39570;-32
2023/03/06 05:52:34;;;;;;;10.40;6.90;;;;;;;;;;102758;1333;41498;-32
2023/03/06 05:55:07;;;;;;;10.50;7.10;;;;;;;;;;102885;1329;44394;-32
2023/03/06 05:57:39;;;;;;;10.00;6.90;;;;;;;;;;103069;1331;42971;-32
2023/03/06 06:00:14;;;;;;;11.10;7.20;;;;;;;;;;103070;1331;39468;-32
2023/03/06 06:02:45;;;;;;;10.30;7.20;;;;;;;;;;103087;1331;42745;-32
2023/03/06 06:05:18;;;;;;;11.10;7.60;;;;;;;;;;103056;1330;44254;-32
2023/03/06 06:07:52;;;;;;;10.40;7.30;;;;;;;;;;102408;1330;896528;-32
2023/03/06 06:10:24;;;;;;;10.50;7.10;;;;;;;;;;103072;1331;39447;-32
2023/03/06 06:13:00;;;;;;;9.90;7.00;;;;;;;;;;103033;1329;41584;-32
2023/03/06 06:15:36;;;;;;;10.90;7.30;;;;;;;;;;102729;1330;420396;-32
2023/03/06 06:18:17;;;;;;;9.70;6.80;;;;;;;;;;103062;1329;43059;-32
2023/03/06 06:20:47;;;;;;;10.30;7.30;;;;;;;;;;103019;1330;39733;-32
2023/03/06 06:23:20;;;;;;;11.40;7.50;;;;;;;;;;103054;1330;41225;-32
2023/03/06 06:25:58;;;;;;;10.20;7.00;;;;;;;;;;102832;1333;44964;-32
2023/03/06 06:28:29;;;;;;;10.20;7.20;;;;;;;;;;102795;1332;44244;-32
2023/03/06 06:31:13;;;;;;;10.30;7.10;;;;;;;;;;102692;1334;175847;-32
2023/03/06 06:33:49;;;;;;;10.20;7.00;;;;;;;;;;102769;1334;41275;-32
2023/03/06 06:36:25;;;;;;;10.60;7.40;;;;;;;;;;102970;1331;45648;-32
2023/03/06 06:38:57;;;;;;;9.60;6.80;;;;;;;;;;103055;1330;42992;-32
2023/03/06 06:41:33;;;;;;;9.70;7.20;;;;;;;;;;103065;1331;39744;-32
2023/03/06 06:44:28;;;;;;;10.30;6.70;;;;;;;;;;103009;1330;175758;-32
2023/03/06 06:47:03;;;;;;;10.20;6.80;;;;;;;;;;102771;1333;44973;-32
2023/03/06 06:49:56;;;;;;;10.10;7.20;;;;;;;;;;102784;1333;43105;-32
2023/03/06 06:52:33;;;;;;;10.00;7.30;;;;;;;;;;102794;1334;39599;-32
2023/03/06 06:55:04;;;;;;;9.70;7.20;;;;;;;;;;102566;1335;42291;-32
2023/03/06 06:57:36;;;;;;;10.20;7.20;;;;;;;;;;102991;1331;175854;-32
2023/03/06 07:00:11;;;;;;;;;;;;;;;;;;103132;1329;45263;-32
2023/03/06 07:02:41;;;;;;;9.40;7.00;;;;;;;;;;103107;1331;39558;-32
2023/03/06 07:05:19;;;;;;;9.20;7.00;;;;;;;;;;103091;1331;41401;-32
2023/03/06 07:07:53;;;;;;;9.80;7.40;;;;;;;;;;103102;1331;52923;-32
2023/03/06 07:10:27;;;;;;;10.80;6.60;;;;;;;;;;103080;1330;42944;-32
2023/03/06 07:12:58;;;;;;;10.80;6.90;;;;;;;;;;103108;1330;40869;-32
2023/03/06 07:15:35;;;;;;;10.10;7.40;;;;;;;;;;103068;1334;41190;-32
2023/03/06 07:18:11;;;;;;;9.90;6.70;;;;;;;;;;102941;1330;52625;-32
2023/03/06 07:20:46;;;;;;;11.10;7.70;;;;;;;;;;102815;1333;44293;-32
2023/03/06 07:23:17;;;;;;;10.30;7.00;;;;;;;;;;102692;1334;177607;-32
2023/03/06 07:26:00;;;;;;;10.00;7.20;;;;;;;;;;102627;1334;41297;-32
2023/03/06 07:28:43;;;;;;;10.20;6.80;;;;;;;;;;103052;1328;51670;-33
2023/03/06 07:31:27;;;;;;;11.70;7.30;;;;;;;;;;103103;1328;42928;-32
2023/03/06 07:33:58;;;;;;;10.20;7.30;;;;;;;;;;103146;1328;39820;-32
2023/03/06 07:36:28;;;;;;;12.30;7.20;;;;;;;;;;103144;1327;41485;-32
2023/03/06 07:39:03;;;;;;;11.40;7.80;;;;;;;;;;102560;1335;175551;-33
2023/03/06 07:41:34;;;;;;;10.80;7.30;;;;;;;;;;102793;1331;43111;-33
2023/03/06 07:44:07;;;;;;;12.00;7.40;;;;;;;;;;102629;1331;39778;-33
2023/03/06 07:46:37;;;;;;;10.50;7.10;;;;;;;;;;102689;1331;41251;-31
2023/03/06 07:49:15;;;;;;;11.50;7.80;;;;;;;;;;102826;1327;44802;-32
2023/03/06 07:51:50;;;;;;;11.80;7.40;;;;;;;;;;103251;1328;44198;-32
2023/03/06 07:54:25;;;;;;;11.70;8.00;;;;;;;;;;103159;1328;39696;-32
2023/03/06 07:57:00;;;;;;;12.70;7.70;;;;;;;;;;103010;1331;41443;-32
2023/03/06 07:59:37;;;;;;;10.70;7.40;;;;;;;;;;102783;1333;44604;-33
2023/03/06 08:02:12;;;;;;;10.60;7.30;;;;;;;;;;102728;1332;43239;-34
2023/03/06 08:04:42;;;;;;;11.60;7.90;;;;;;;;;;102836;1331;39263;-30
2023/03/06 08:07:12;;;;;;;12.20;8.20;;;;;;;;;;102814;1327;41425;-33
2023/03/06 08:09:41;;;;;;;10.10;7.50;;;;;;;;;;102909;1330;44767;-33
2023/03/06 08:12:11;;;;;;;11.30;7.80;;;;;;;;;;103201;1328;44367;-31
2023/03/06 08:14:41;;;;;;;13.00;8.00;;;;;;;;;;103180;1328;38485;-31
2023/03/06 08:17:10;;;;;;;12.40;8.50;;;;;;;;;;103013;1328;41333;-31
2023/03/06 08:19:40;;;;;;;12.40;8.20;;;;;;;;;;102660;1334;175430;-31
2023/03/06 08:22:12;;;;;;;11.10;8.30;;;;;;;;;;102645;1334;175674;-31
2023/03/06 08:24:42;;;;;;;11.20;8.30;;;;;;;;;;102664;1334;40116;-31
2023/03/06 08:27:17;;;;;;;12.20;8.10;;;;;;;;;;102733;1331;41308;-31
2023/03/06 08:29:48;;;;;;;11.60;7.90;;;;;;;;;;103027;1331;50642;-30
2023/03/06 08:32:25;;;;;;;12.50;8.00;;;;;;;;;;103110;1331;43173;-31
2023/03/06 08:34:58;;;;;;;11.30;8.00;;;;;;;;;;103061;1327;39583;-32
2023/03/06 08:37:28;;;;;;;12.00;8.40;;;;;;;;;;102771;1328;42487;-31
2023/03/06 08:40:03;;;;;;;;;;;;;;;;;;102418;1337;50481;-31
2023/03/06 08:42:32;;;;;;;11.20;7.70;;;;;;;;;;102941;1331;42188;-31
2023/03/06 08:45:03;;;;;;;11.50;8.00;;;;;;;;;;102924;1330;39564;-31
2023/03/06 08:47:40;;;;;;;10.70;7.80;;;;;;;;;;102743;1334;41076;-31
2023/03/06 08:50:14;;;;;;;9.70;7.20;;;;;;;;;;103198;1328;52725;-32
2023/03/06 08:52:44;;;;;;;11.00;7.90;;;;;;;;;;103192;1328;42649;-31
2023/03/06 08:55:16;;;;;;;11.00;7.80;;;;;;;;;;103087;1331;38447;-30
2023/03/06 08:57:52;;;;;;;10.80;8.00;;;;;;;;;;103183;1328;41370;-30
2023/03/06 09:00:25;;;;;;;10.80;7.80;;;;;;;;;;102747;1328;50198;-33
2023/03/06 09:02:59;;;;;;;11.20;7.80;;;;;;;;;;102856;1328;42761;-31
2023/03/06 09:05:32;;;;;;;10.60;7.90;;;;;;;;;;103178;1328;39429;-31
2023/03/06 09:08:04;;;;;;;10.20;7.70;;;;;;;;;;102657;1333;175622;-30
2023/03/06 09:10:48;;;;;;;10.70;8.20;;;;;;;;;;103091;1328;46460;-30
2023/03/06 09:13:26;;;;;;;10.50;7.60;;;;;;;;;;102951;1328;44259;-30
2023/03/06 09:15:56;;;;;;;11.00;7.50;;;;;;;;;;102971;1334;39939;-30
2023/03/06 09:18:28;;;;;;;10.20;7.40;;;;;;;;;;103096;1331;41238;-30
2023/03/06 09:21:04;;;;;;;11.50;7.60;;;;;;;;;;103000;1328;44350;-29
2023/03/06 09:23:41;;;;;;;9.90;7.40;;;;;;;;;;103297;1328;43119;-29
2023/03/06 09:26:19;;;;;;;10.20;7.40;;;;;;;;;;103168;1329;40941;-29
2023/03/06 09:28:50;;;;;;;10.20;7.50;;;;;;;;;;103089;1328;41174;-30
2023/03/06 09:31:23;;;;;;;9.90;6.80;;;;;;;;;;102639;1338;44384;-30
2023/03/06 09:33:53;;;;;;;9.70;7.20;;;;;;;;;;102751;1333;43477;-30
2023/03/06 09:36:26;;;;;;;10.10;6.70;;;;;;;;;;102656;1334;38629;-31
2023/03/06 09:38:59;;;;;;;9.50;6.60;;;;;;;;;;102700;1328;41304;-31
2023/03/06 09:41:36;;;;;;;9.80;6.90;;;;;;;;;;102664;1334;51356;-31
2023/03/06 09:44:13;;;;;;;10.20;6.90;;;;;;;;;;102772;1334;43091;-30
2023/03/06 09:47:02;;;;;;;9.70;6.90;;;;;;;;;;102780;1334;39645;-30
2023/03/06 09:49:50;;;;;;;10.60;6.60;;;;;;;;;;102855;1328;42630;-30
2023/03/06 09:52:33;;;;;;;9.90;6.50;;;;;;;;;;103273;1328;44240;-30
2023/03/06 09:55:14;;;;;;;9.30;6.40;;;;;;;;;;103284;1327;43046;-30
2023/03/06 09:57:53;;;;;;;10.00;6.80;;;;;;;;;;103286;1331;40754;-31
2023/03/06 10:00:29;;;;;;;9.20;6.30;;;;;;;;;;103042;1333;41405;-30
2023/03/06 10:03:17;;;;;;;8.90;6.30;;;;;;;;;;102833;1334;44343;-30
2023/03/06 10:05:59;;;;;;;8.90;6.30;;;;;;;;;;102818;1333;44285;-30
2023/03/06 10:08:45;;;;;;;9.10;6.10;;;;;;;;;;102778;1334;39617;-31
2023/03/06 10:11:25;;;;;;;9.10;5.90;;;;;;;;;;102812;1331;41440;-30
2023/03/06 10:14:19;;;;;;;8.90;6.30;;;;;;;;;;102759;1334;44465;-31
2023/03/06 10:16:51;;;;;;;8.00;5.90;;;;;;;;;;102767;1335;43250;-31
2023/03/06 10:19:30;;;;;;;8.70;6.10;;;;;;;;;;102730;1333;39983;-32
2023/03/06 10:22:04;;;;;;;9.00;6.30;;;;;;;;;;103048;1331;41210;-32
2023/03/06 10:24:52;;;;;;;8.90;5.50;;;;;;;;;;103105;1331;44446;-32
2023/03/06 10:27:36;;;;;;;9.60;5.90;;;;;;;;;;103056;1330;43019;-32
2023/03/06 10:30:27;;;;;;;8.70;5.70;;;;;;;;;;103068;1331;39456;-30
2023/03/06 10:32:59;;;;;;;9.00;5.60;;;;;;;;;;102595;1336;48006;-31
2023/03/06 10:35:46;;;;;;;7.70;5.00;;;;;;;;;;102623;1334;45054;-31
2023/03/06 10:38:27;;;;;;;8.60;5.40;;;;;;;;;;102782;1333;45417;-31
2023/03/06 10:41:19;;;;;;;7.50;5.20;;;;;;;;;;102794;1330;40013;-31
2023/03/06 10:44:20;;;;;;;7.60;5.10;;;;;;;;;;102923;1331;41611;-31
2023/03/06 10:46:53;;;;;;;8.30;5.40;;;;;;;;;;102928;1330;44593;-31
2023/03/06 10:49:35;;;;;;;7.60;5.20;;;;;;;;;;103029;1331;42875;-32
2023/03/06 10:52:19;;;;;;;7.50;5.20;;;;;;;;;;102863;1331;39445;-31
2023/03/06 10:54:49;;;;;;;7.30;4.90;;;;;;;;;;102764;1332;41968;-31
2023/03/06 10:57:30;;;;;;;7.60;5.00;;;;;;;;;;102786;1334;44468;-30
2023/03/06 11:00:04;;;;;;;8.50;5.20;;;;;;;;;;102628;1333;42963;-31
2023/03/06 11:02:42;;;;;;;7.30;4.70;;;;;;;;;;102930;1331;40018;-31
2023/03/06 11:05:20;;;;;;;8.90;4.90;;;;;;;;;;102965;1331;175653;-32
2023/03/06 11:07:58;;;;;;;7.30;4.70;;;;;;;;;;103086;1331;44246;-32
2023/03/06 11:10:36;;;;;;;7.20;4.60;;;;;;;;;;103098;1331;42858;-31
2023/03/06 11:13:22;;;;;;;7.70;4.70;;;;;;;;;;102818;1331;39149;-30
2023/03/06 11:16:00;;;;;;;7.60;4.40;;;;;;;;;;102634;1337;41400;-32
2023/03/06 11:18:36;;;;;;;8.00;4.80;;;;;;;;;;102598;1334;44332;-32
2023/03/06 11:21:28;;;;;;;7.40;4.80;;;;;;;;;;102601;1334;44907;-31
2023/03/06 11:24:13;;;;;;;7.20;4.50;;;;;;;;;;102873;1331;46827;-32
2023/03/06 11:26:53;;;;;;;6.70;4.30;;;;;;;;;;102807;1331;175614;-31
2023/03/06 11:29:42;;;;;;;8.80;4.50;;;;;;;;;;102889;1331;44151;-32
2023/03/06 11:32:22;;;;;;;7.10;4.30;;;;;;;;;;102804;1331;43128;-31
2023/03/06 11:35:01;;;;;;;7.70;4.60;;;;;;;;;;102571;1334;39542;-32
2023/03/06 11:37:50;;;;;;;7.80;4.50;;;;;;;;;;102795;1331;42758;-32
2023/03/06 11:40:27;;;;;;;7.00;4.70;;;;;;;;;;102562;1336;44390;-31
2023/03/06 11:43:06;;;;;;;7.40;4.50;;;;;;;;;;102698;1331;43078;-32
2023/03/06 11:45:45;;;;;;;7.60;4.50;;;;;;;;;;102849;1330;39726;-32
2023/03/06 11:48:26;;;;;;;7.50;4.50;;;;;;;;;;102888;1331;41297;-32
2023/03/06 11:51:05;;;;;;;7.60;4.70;;;;;;;;;;103070;1330;44238;-33
2023/03/06 11:53:41;;;;;;;7.40;4.40;;;;;;;;;;102935;1333;42415;-32
2023/03/06 11:56:33;;;;;;;7.50;4.80;;;;;;;;;;102747;1334;175695;-32
2023/03/06 11:59:36;;;;;;;6.50;4.30;;;;;;;;;;102787;1333;41264;-31
2023/03/06 12:02:24;;;;;;;6.90;4.50;;;;;;;;;;102762;1333;44386;-32
2023/03/06 12:05:25;;;;;;;8.40;4.70;;;;;;;;;;102757;1334;48309;-32
2023/03/06 12:08:15;;;;;;;6.80;4.60;;;;;;;;;;102780;1333;39676;-32
2023/03/06 12:10:56;;;;;;;7.60;4.80;;;;;;;;;;102765;1334;41195;-32
2023/03/06 12:13:40;;;;;;;;;;;;;;;;;;102876;1331;44267;-32
2023/03/06 12:16:34;;;;;;;7.10;4.30;;;;;;;;;;103080;1331;42218;-32
2023/03/06 12:19:19;;;;;;;7.00;4.10;;;;;;;;;;103116;1330;39397;-32
2023/03/06 12:22:13;;;;;;;6.50;4.20;;;;;;;;;;103088;1331;40982;-32
2023/03/06 12:25:29;;;;;;;6.90;4.00;;;;;;;;;;103130;1328;44237;-32
2023/03/06 12:28:29;;;;;;;7.20;4.30;;;;;;;;;;102964;1327;42749;-32
2023/03/06 12:31:35;;;;;;;6.80;4.30;;;;;;;;;;103255;1328;39486;-32
2023/03/06 12:34:27;;;;;;;6.10;4.10;;;;;;;;;;102903;1331;41448;-32
2023/03/06 12:37:16;;;;;;;6.40;4.00;;;;;;;;;;102749;1328;45027;-32
2023/03/06 12:40:10;;;;;;;6.30;4.00;;;;;;;;;;102814;1333;43030;-32
2023/03/06 12:43:03;;;;;;;6.50;3.70;;;;;;;;;;103303;1327;39761;-32
2023/03/06 12:45:35;;;;;;;5.70;3.60;;;;;;;;;;103101;1328;41218;-32
2023/03/06 12:48:19;;;;;;;6.10;3.80;;;;;;;;;;103061;1333;45619;-32
2023/03/06 12:50:53;;;;;;;6.10;3.90;;;;;;;;;;103054;1328;45312;-32
2023/03/06 12:53:29;;;;;;;6.20;4.00;;;;;;;;;;103293;1328;39323;-32
2023/03/06 12:56:02;;;;;;;6.30;3.90;;;;;;;;;;102746;1334;47940;-32
2023/03/06 12:58:51;;;;;;;6.40;3.80;;;;;;;;;;102371;1337;44508;-32
2023/03/06 13:01:53;;;;;;;5.30;3.70;;;;;;;;;;102563;1334;44352;-32
2023/03/06 13:04:50;;;;;;;5.70;3.70;;;;;;;;;;102766;1328;39831;-32
2023/03/06 13:07:35;;;;;;;5.60;3.60;;;;;;;;;;102900;1331;41188;-32
2023/03/06 13:10:26;;;;;;;5.80;3.70;;;;;;;;;;103284;1327;44563;-32
2023/03/06 13:12:59;;;;;;;6.20;3.90;;;;;;;;;;103320;1328;44282;-32
2023/03/06 13:15:40;;;;;;;7.50;4.30;;;;;;;;;;103227;1327;41862;-32
2023/03/06 13:19:03;;;;;;;6.70;4.00;;;;;;;;;;103325;1327;42457;-32
2023/03/06 13:22:03;;;;;;;6.30;3.90;;;;;;;;;;102991;1333;44407;-32
2023/03/06 13:24:36;;;;;;;6.50;3.90;;;;;;;;;;102917;1328;43149;-32
2023/03/06 13:27:10;;;;;;;7.50;4.00;;;;;;;;;;102872;1334;39444;-32
2023/03/06 13:30:22;;;;;;;7.70;4.30;;;;;;;;;;102847;1334;43959;-32
2023/03/06 13:32:58;;;;;;;6.20;4.10;;;;;;;;;;103066;1330;44631;-32
2023/03/06 13:35:59;;;;;;;6.70;4.40;;;;;;;;;;103051;1328;43036;-32
2023/03/06 13:38:37;;;;;;;7.40;4.00;;;;;;;;;;103276;1327;39240;-32
2023/03/06 13:41:45;;;;;;;7.10;4.20;;;;;;;;;;103288;1327;41004;-32
2023/03/06 13:44:42;;;;;;;6.90;4.50;;;;;;;;;;102593;1336;44173;-32
2023/03/06 13:47:36;;;;;;;6.40;4.30;;;;;;;;;;103292;1327;50648;-32
2023/03/06 13:50:41;;;;;;;6.80;4.00;;;;;;;;;;103282;1328;39491;-32
2023/03/06 13:53:43;;;;;;;6.80;4.30;;;;;;;;;;102923;1328;41151;-32
2023/03/06 13:56:55;;;;;;;7.00;4.50;;;;;;;;;;103149;1327;44427;-32
2023/03/06 14:00:18;;;;;;;6.40;4.40;;;;;;;;;;103271;1343;43046;-32
2023/03/06 14:03:33;;;;;;;8.40;5.20;;;;;;;;;;102962;1335;39548;-32
2023/03/06 14:06:48;;;;;;;6.30;4.40;;;;;;;;;;102933;1328;41591;-32
2023/03/06 14:09:36;;;;;;;7.00;4.60;;;;;;;;;;103196;1327;44240;-33
2023/03/06 14:12:17;;;;;;;6.40;4.80;;;;;;;;;;103265;1336;42965;-32
2023/03/06 14:14:53;;;;;;;7.20;4.90;;;;;;;;;;102753;1331;515527;-32
2023/03/06 14:17:29;;;;;;;7.20;5.20;;;;;;;;;;102785;1333;41133;-32
2023/03/06 14:20:13;;;;;;;6.20;4.70;;;;;;;;;;102865;1334;44415;-32
2023/03/06 14:22:45;;;;;;;6.70;5.00;;;;;;;;;;102767;1333;43189;-32
2023/03/06 14:25:23;;;;;;;6.80;4.80;;;;;;;;;;102754;1334;39869;-31
2023/03/06 14:27:54;;;;;;;6.40;4.70;;;;;;;;;;103203;1328;41629;-31
2023/03/06 14:30:29;;;;;;;7.10;5.00;;;;;;;;;;103259;1328;44346;-30
2023/03/06 14:32:58;;;;;;;6.20;4.90;;;;;;;;;;103255;1327;43708;-31
2023/03/06 14:35:33;;;;;;;7.70;5.00;;;;;;;;;;103251;1328;38535;-31
2023/03/06 14:38:05;;;;;;;7.50;5.10;;;;;;;;;;102763;1333;41363;-31
2023/03/06 14:40:41;;;;;;;6.00;4.50;;;;;;;;;;102801;1333;44342;-31
2023/03/06 14:43:21;;;;;;;7.30;5.00;;;;;;;;;;102778;1339;43774;-31
2023/03/06 14:45:59;;;;;;;6.80;4.90;;;;;;;;;;102806;1333;41066;-31
2023/03/06 14:48:42;;;;;;;7.40;5.40;;;;;;;;;;103232;1327;49579;-31
2023/03/06 14:51:17;;;;;;;6.50;5.20;;;;;;;;;;103281;1327;45899;-32
2023/03/06 14:53:49;;;;;;;6.40;5.10;;;;;;;;;;103294;1328;43527;-30
2023/03/06 14:56:21;;;;;;;6.30;5.00;;;;;;;;;;103250;1327;39737;-31
2023/03/06 14:58:59;;;;;;;6.60;5.00;;;;;;;;;;103147;1327;41263;-31
2023/03/06 15:01:33;;;;;;;6.70;5.00;;;;;;;;;;102901;1328;46145;-31
2023/03/06 15:04:16;;;;;;;7.40;4.90;;;;;;;;;;103161;1327;175276;-31
2023/03/06 15:06:47;;;;;;;6.10;4.80;;;;;;;;;;103278;1327;40797;-30
2023/03/06 15:09:23;;;;;;;7.00;4.90;;;;;;;;;;103295;1328;42494;-32
2023/03/06 15:11:56;;;;;;;6.10;4.70;;;;;;;;;;103280;1327;44383;-31
2023/03/06 15:14:35;;;;;;;7.30;5.30;;;;;;;;;;103210;1327;43081;-32
2023/03/06 15:17:39;;;;;;;7.20;5.10;;;;;;;;;;103208;1327;39641;-31
2023/03/06 15:20:42;;;;;;;6.40;4.90;;;;;;;;;;102625;1330;41313;-30
2023/03/06 15:23:23;;;;;;;6.90;5.20;;;;;;;;;;103131;1331;44450;-31
2023/03/06 15:25:59;;;;;;;6.90;5.30;;;;;;;;;;103132;1330;42905;-32
2023/03/06 15:28:39;;;;;;;7.80;5.00;;;;;;;;;;103231;1327;39673;-30
2023/03/06 15:31:22;;;;;;;6.60;5.20;;;;;;;;;;103256;1327;41368;-30